Time;durP1;ratioP1;P1;durP2;ratioP2;P2;SDS_P1;SDS_P2;PMS_P1;PMS_P2;Temp;Humidity;BMP_temperature;BMP_pressure;BME280_temperature;BME280_humidity;BME280_pressure;Samples;Min_cycle;Max_cycle;Signal;HPM_P1;HPM_P2
2023/01/17 05:01:20;;;;;;;2.40;2.20;;;2.60;99.90;;;;;;5615438;23;20847;-71
2023/01/17 05:03:47;;;;;;;2.47;2.27;;;2.60;99.90;;;;;;4987142;28;20456;-71
2023/01/17 05:06:14;;;;;;;3.60;2.33;;;2.60;99.90;;;;;;4986186;28;20468;-72
2023/01/17 05:08:40;;;;;;;3.50;2.10;;;2.60;99.90;;;;;;4986796;28;20451;-72
2023/01/17 05:11:07;;;;;;;2.70;2.37;;;2.70;99.90;;;;;;4986754;28;20468;-72
2023/01/17 05:13:34;;;;;;;3.23;2.30;;;2.60;99.90;;;;;;4986824;28;20455;-71
2023/01/17 05:16:01;;;;;;;5.30;2.10;;;2.70;99.90;;;;;;4986134;28;20463;-72
2023/01/17 05:18:29;;;;;;;4.67;2.20;;;2.70;99.90;;;;;;4986735;28;20459;-71
2023/01/17 05:21:01;;;;;;;2.70;2.03;;;2.70;99.90;;;;;;4986599;28;20482;-72
2023/01/17 05:23:28;;;;;;;3.23;2.00;;;2.70;99.90;;;;;;4986701;28;20436;-71
2023/01/17 05:25:55;;;;;;;2.77;2.30;;;2.70;99.90;;;;;;4986126;28;20522;-73
2023/01/17 05:28:22;;;;;;;3.63;2.30;;;2.70;99.90;;;;;;4985910;28;20474;-73
2023/01/17 05:30:51;;;;;;;2.47;2.27;;;2.60;99.90;;;;;;4986188;28;20482;-75
2023/01/17 05:33:18;;;;;;;5.20;2.07;;;2.60;99.90;;;;;;4986526;28;20452;-74
2023/01/17 05:35:46;;;;;;;4.30;1.90;;;2.60;99.90;;;;;;4986618;28;20459;-72
2023/01/17 05:38:13;;;;;;;3.03;2.30;;;2.60;99.90;;;;;;4985744;28;20451;-72
2023/01/17 05:40:40;;;;;;;2.10;2.00;;;2.60;99.90;;;;;;4985887;28;20484;-72
2023/01/17 05:43:06;;;;;;;2.17;2.07;;;2.70;99.90;;;;;;4985944;28;20503;-66
2023/01/17 05:45:34;;;;;;;2.00;1.80;;;2.60;99.90;;;;;;4986292;28;20460;-66
2023/01/17 05:48:02;;;;;;;3.53;2.30;;;2.60;99.90;;;;;;4985154;28;20462;-67
2023/01/17 05:50:30;;;;;;;2.00;1.90;;;2.60;99.90;;;;;;4985620;28;20947;-67
2023/01/17 05:53:00;;;;;;;2.13;1.93;;;2.60;99.90;;;;;;4985782;28;20451;-67
2023/01/17 05:55:28;;;;;;;2.47;1.73;;;2.60;99.90;;;;;;4986145;28;20459;-67
2023/01/17 05:57:55;;;;;;;2.20;2.00;;;2.60;99.90;;;;;;4986148;28;20463;-67
2023/01/17 06:00:23;;;;;;;2.80;1.90;;;2.60;99.90;;;;;;4989794;28;21138;-67
2023/01/17 06:02:52;;;;;;;2.80;2.43;;;2.60;99.90;;;;;;4990030;28;20482;-67
2023/01/17 06:05:20;;;;;;;2.47;2.27;;;2.60;99.90;;;;;;4989779;28;20944;-67
2023/01/17 06:07:47;;;;;;;2.77;1.80;;;2.60;99.90;;;;;;4988502;28;20466;-67
2023/01/17 06:10:16;;;;;;;4.67;2.47;;;2.70;99.90;;;;;;4989447;28;20959;-67
2023/01/17 06:12:44;;;;;;;2.97;2.67;;;2.70;99.90;;;;;;4989933;28;20454;-67
2023/01/17 06:15:13;;;;;;;3.30;2.23;;;2.80;99.90;;;;;;4990265;28;20451;-67
2023/01/17 06:17:40;;;;;;;2.53;2.10;;;2.80;99.90;;;;;;4989111;28;20477;-67
2023/01/17 06:20:12;;;;;;;2.73;2.20;;;2.80;99.90;;;;;;4989342;28;20455;-67
2023/01/17 06:22:39;;;;;;;2.50;2.30;;;2.80;99.90;;;;;;4989020;28;20490;-67
2023/01/17 06:25:06;;;;;;;3.30;2.90;;;2.80;99.90;;;;;;4989065;28;20464;-67
2023/01/17 06:27:34;;;;;;;3.28;2.40;;;2.80;99.90;;;;;;4987684;28;21187;-66
2023/01/17 06:30:01;;;;;;;2.60;2.40;;;2.90;99.90;;;;;;4989438;28;20221;-67
2023/01/17 06:32:28;;;;;;;2.80;2.60;;;3.00;99.90;;;;;;4989751;28;20562;-67
2023/01/17 06:34:55;;;;;;;3.53;2.90;;;3.00;99.90;;;;;;4989052;28;20455;-66
2023/01/17 06:37:22;;;;;;;3.37;2.70;;;3.00;99.90;;;;;;4988425;28;20455;-67
2023/01/17 06:39:48;;;;;;;2.90;2.60;;;2.90;99.90;;;;;;4989918;28;20822;-67
2023/01/17 06:42:15;;;;;;;3.03;2.73;;;2.90;99.90;;;;;;4988871;28;20495;-67
2023/01/17 06:44:43;;;;;;;4.83;2.67;;;2.80;99.90;;;;;;4988952;28;20456;-67
2023/01/17 06:47:10;;;;;;;3.20;2.77;;;2.80;99.90;;;;;;4988620;28;20459;-67
2023/01/17 06:49:37;;;;;;;4.33;3.10;;;2.80;99.90;;;;;;4988586;28;20462;-67
2023/01/17 06:52:04;;;;;;;3.13;2.83;;;2.70;99.90;;;;;;4988538;28;20555;-67
2023/01/17 06:54:31;;;;;;;3.40;3.00;;;2.70;99.90;;;;;;4989049;28;20451;-67
2023/01/17 06:56:58;;;;;;;3.30;2.40;;;2.70;99.90;;;;;;4988135;28;20465;-67
2023/01/17 06:59:24;;;;;;;4.10;3.13;;;2.60;99.90;;;;;;4989029;28;20466;-67
2023/01/17 07:01:52;;;;;;;4.40;3.00;;;2.60;99.90;;;;;;4988703;28;20490;-67
2023/01/17 07:04:19;;;;;;;4.07;3.17;;;2.60;99.90;;;;;;4988756;28;20456;-67
2023/01/17 07:06:46;;;;;;;3.90;3.23;;;2.60;99.90;;;;;;4988380;28;20459;-67
2023/01/17 07:09:13;;;;;;;5.93;3.17;;;2.50;99.90;;;;;;4988198;28;20469;-66
2023/01/17 07:11:40;;;;;;;4.27;3.43;;;2.50;99.90;;;;;;4987494;28;20563;-67
2023/01/17 07:14:12;;;;;;;5.67;3.77;;;2.50;99.90;;;;;;4988809;28;20466;-67
2023/01/17 07:16:38;;;;;;;5.50;4.40;;;2.50;99.90;;;;;;4988003;28;20456;-67
2023/01/17 07:19:07;;;;;;;4.50;3.90;;;2.50;99.90;;;;;;4988438;28;20460;-67
2023/01/17 07:21:33;;;;;;;4.60;3.40;;;2.40;99.90;;;;;;4988192;28;21021;-67
2023/01/17 07:24:00;;;;;;;5.50;3.30;;;2.40;99.90;;;;;;4988152;28;21253;-67
2023/01/17 07:26:27;;;;;;;5.37;3.60;;;2.40;99.90;;;;;;4987787;28;20459;-67
2023/01/17 07:28:54;;;;;;;4.10;3.33;;;2.40;99.90;;;;;;4988042;28;20574;-67
2023/01/17 07:31:20;;;;;;;5.57;4.10;;;2.30;99.90;;;;;;4988250;28;20493;-66
2023/01/17 07:33:47;;;;;;;4.33;3.93;;;2.20;99.90;;;;;;4987346;28;20443;-67
2023/01/17 07:36:15;;;;;;;4.43;3.57;;;2.20;99.90;;;;;;4987628;28;20459;-67
2023/01/17 07:38:43;;;;;;;7.73;4.50;;;2.20;99.90;;;;;;4987874;28;21191;-67
2023/01/17 07:41:10;;;;;;;3.33;3.00;;;2.20;99.90;;;;;;4987872;28;20735;-67
2023/01/17 07:43:37;;;;;;;7.63;3.90;;;2.20;99.90;;;;;;4988309;28;20496;-67
2023/01/17 07:46:06;;;;;;;5.67;3.60;;;2.20;99.90;;;;;;4987393;28;20459;-67
2023/01/17 07:48:32;;;;;;;4.73;3.20;;;2.20;99.90;;;;;;4987833;28;20459;-66
2023/01/17 07:50:59;;;;;;;8.33;3.67;;;2.20;99.90;;;;;;4987940;28;21276;-66
2023/01/17 07:53:30;;;;;;;7.90;3.50;;;2.10;99.90;;;;;;4988202;28;20494;-67
2023/01/17 07:56:01;;;;;;;6.33;3.40;;;2.10;99.90;;;;;;4987545;28;20455;-67
2023/01/17 07:58:28;;;;;;;3.33;3.03;;;2.10;99.90;;;;;;4987417;28;20452;-67
2023/01/17 08:00:54;;;;;;;5.73;2.77;;;2.20;99.90;;;;;;4987797;28;20487;-66
2023/01/17 08:03:21;;;;;;;5.17;3.20;;;2.10;99.90;;;;;;4987700;28;20502;-67
2023/01/17 08:05:55;;;;;;;5.70;3.60;;;2.10;99.90;;;;;;4987621;28;20460;-67
2023/01/17 08:08:22;;;;;;;4.73;3.10;;;2.10;99.90;;;;;;4987402;28;20996;-67
2023/01/17 08:10:52;;;;;;;4.90;3.43;;;2.00;99.90;;;;;;4987401;28;20487;-67
2023/01/17 08:13:19;;;;;;;5.00;2.93;;;2.00;99.90;;;;;;4987042;28;20936;-67
2023/01/17 08:15:48;;;;;;;5.07;3.67;;;1.90;99.90;;;;;;4987501;28;20455;-67
2023/01/17 08:18:15;;;;;;;4.57;3.13;;;1.90;99.90;;;;;;4986682;28;20443;-66
2023/01/17 08:20:44;;;;;;;4.40;3.40;;;2.00;99.90;;;;;;4987412;28;20480;-66
2023/01/17 08:23:11;;;;;;;6.73;5.27;;;2.00;99.90;;;;;;4986247;28;20546;-67
2023/01/17 08:25:38;;;;;;;8.00;4.70;;;2.00;99.90;;;;;;4986979;28;20439;-67
2023/01/17 08:28:06;;;;;;;8.30;5.73;;;2.10;99.90;;;;;;4986668;28;20466;-67
2023/01/17 08:30:34;;;;;;;9.40;4.67;;;2.10;99.90;;;;;;4986815;28;20486;-67
2023/01/17 08:33:01;;;;;;;6.97;4.63;;;2.10;99.90;;;;;;4987466;28;20480;-67
2023/01/17 08:35:28;;;;;;;7.30;3.80;;;2.10;99.90;;;;;;4987015;28;20816;-67
2023/01/17 08:37:56;;;;;;;7.10;4.97;;;2.20;99.90;;;;;;4986359;28;20947;-67
2023/01/17 08:40:23;;;;;;;6.90;4.40;;;2.30;99.90;;;;;;4986606;28;20452;-66
2023/01/17 08:42:54;;;;;;;6.70;4.83;;;2.30;99.90;;;;;;4986861;28;21033;-66
2023/01/17 08:45:22;;;;;;;8.40;5.50;;;2.30;99.90;;;;;;4986946;28;20448;-67
2023/01/17 08:47:49;;;;;;;13.27;7.90;;;2.40;99.90;;;;;;4986461;28;20461;-67
2023/01/17 08:50:19;;;;;;;13.13;6.20;;;2.40;99.90;;;;;;4986960;28;20951;-67
2023/01/17 08:52:47;;;;;;;10.70;6.23;;;2.30;99.90;;;;;;4986772;28;20455;-66
2023/01/17 08:55:14;;;;;;;11.23;6.50;;;2.30;99.90;;;;;;4986772;28;20506;-67
2023/01/17 08:57:40;;;;;;;9.50;5.17;;;2.40;99.90;;;;;;4986055;28;20456;-66
2023/01/17 09:00:08;;;;;;;9.07;5.20;;;2.40;99.90;;;;;;4986755;28;20455;-67
2023/01/17 09:02:36;;;;;;;11.80;5.80;;;2.50;99.90;;;;;;4986615;28;20514;-67
2023/01/17 09:05:03;;;;;;;10.67;6.30;;;2.50;99.90;;;;;;4986415;28;20460;-67
2023/01/17 09:07:30;;;;;;;11.50;6.77;;;2.50;99.90;;;;;;4985962;28;20463;-67
2023/01/17 09:09:57;;;;;;;9.90;4.10;;;2.60;99.90;;;;;;4987058;28;20543;-66
2023/01/17 09:12:24;;;;;;;7.03;3.73;;;2.60;99.90;;;;;;4986649;28;20474;-67
2023/01/17 09:14:51;;;;;;;8.20;4.67;;;2.60;99.90;;;;;;4986367;28;20927;-67
2023/01/17 09:17:18;;;;;;;11.43;5.33;;;2.70;99.90;;;;;;4985587;28;20931;-67
2023/01/17 09:19:47;;;;;;;10.00;4.57;;;2.80;99.90;;;;;;4986272;28;20462;-67
2023/01/17 09:22:14;;;;;;;6.00;4.37;;;2.90;99.90;;;;;;4986689;28;20491;-67
2023/01/17 09:24:41;;;;;;;5.93;3.93;;;2.90;99.90;;;;;;4985943;28;20503;-67
2023/01/17 09:27:08;;;;;;;6.97;4.40;;;2.90;99.90;;;;;;4985588;28;20535;-67
2023/01/17 09:29:34;;;;;;;9.07;5.10;;;3.00;99.90;;;;;;4986627;28;20474;-67
2023/01/17 09:32:01;;;;;;;7.10;4.83;;;3.10;99.90;;;;;;4986058;28;20471;-67
2023/01/17 09:34:29;;;;;;;7.77;3.90;;;3.20;99.90;;;;;;4985480;28;21030;-67
2023/01/17 09:36:57;;;;;;;6.37;4.20;;;3.30;99.90;;;;;;4985675;28;20554;-67
2023/01/17 09:39:24;;;;;;;6.77;3.80;;;3.50;99.90;;;;;;4986288;28;20451;-67
2023/01/17 09:41:58;;;;;;;4.97;2.60;;;3.60;99.90;;;;;;4986427;28;20479;-67
2023/01/17 09:44:29;;;;;;;3.60;2.30;;;3.70;99.90;;;;;;4986348;28;21440;-66
2023/01/17 09:47:07;;;;;;;6.47;2.30;;;3.80;99.90;;;;;;4984801;28;20448;-67
2023/01/17 09:49:40;;;;;;;3.10;2.23;;;3.90;99.90;;;;;;4986221;28;20436;-67
2023/01/17 09:52:12;;;;;;;5.13;2.30;;;4.00;99.90;;;;;;4985910;28;20486;-67
2023/01/17 09:54:41;;;;;;;10.23;2.77;;;4.10;99.90;;;;;;4986062;28;20463;-67
2023/01/17 09:57:17;;;;;;;2.87;2.30;;;4.20;99.90;;;;;;4985393;28;20979;-67
2023/01/17 09:59:54;;;;;;;6.03;2.40;;;4.30;99.90;;;;;;4985672;28;20858;-67
2023/01/17 10:02:40;;;;;;;4.40;2.33;;;4.40;99.90;;;;;;4985789;28;20479;-67
2023/01/17 10:05:26;;;;;;;4.57;2.70;;;4.50;99.90;;;;;;4985831;28;20464;-67
2023/01/17 10:08:06;;;;;;;5.47;2.77;;;4.60;99.90;;;;;;4985582;28;20439;-67
2023/01/17 10:10:40;;;;;;;7.23;3.60;;;4.70;99.90;;;;;;4986213;28;20443;-67
2023/01/17 10:13:27;;;;;;;2.57;2.37;;;4.80;99.90;;;;;;4985649;28;21009;-66
2023/01/17 10:16:08;;;;;;;3.63;2.40;;;4.90;99.90;;;;;;4985251;28;20438;-64
2023/01/17 10:19:03;;;;;;;3.20;2.23;;;5.10;99.90;;;;;;4985349;28;20991;-67
2023/01/17 10:21:38;;;;;;;3.70;1.90;;;5.30;99.90;;;;;;4985593;28;20483;-67
2023/01/17 10:24:28;;;;;;;2.80;2.43;;;5.40;99.90;;;;;;4985742;28;20568;-67
2023/01/17 10:26:57;;;;;;;2.70;2.00;;;5.60;99.90;;;;;;4985395;28;20840;-67
2023/01/17 10:29:29;;;;;;;4.30;2.33;;;5.70;99.90;;;;;;4985510;28;20487;-67
2023/01/17 10:32:00;;;;;;;2.70;2.33;;;5.90;99.90;;;;;;4985675;28;20472;-67
2023/01/17 10:34:34;;;;;;;10.60;1.60;;;6.00;99.90;;;;;;4985789;28;20435;-66
2023/01/17 10:37:11;;;;;;;3.23;1.87;;;6.10;99.90;;;;;;4984654;28;21098;-67
2023/01/17 10:39:39;;;;;;;2.00;1.80;;;6.20;99.90;;;;;;4985905;28;20857;-67
2023/01/17 10:42:16;;;;;;;3.43;1.60;;;6.20;99.90;;;;;;4985745;28;20471;-67
2023/01/17 10:44:50;;;;;;;1.90;1.67;;;6.30;99.90;;;;;;4985386;28;21009;-67
2023/01/17 10:47:21;;;;;;;2.27;1.50;;;6.40;99.90;;;;;;4988652;28;20442;-67
2023/01/17 10:49:52;;;;;;;5.70;2.83;;;6.50;99.90;;;;;;4989431;28;20431;-67
2023/01/17 10:52:27;;;;;;;3.50;1.30;;;6.60;99.90;;;;;;4989091;28;20569;-67
2023/01/17 10:55:05;;;;;;;1.40;1.30;;;6.70;99.90;;;;;;4988982;28;20453;-67
2023/01/17 10:57:39;;;;;;;1.63;1.47;;;6.80;99.90;;;;;;4987958;28;20451;-67
2023/01/17 11:00:24;;;;;;;1.40;1.30;;;6.90;99.90;;;;;;4989144;28;20458;-67
2023/01/17 11:02:51;;;;;;;3.03;1.40;;;7.00;99.90;;;;;;4988919;28;20452;-67
2023/01/17 11:05:23;;;;;;;3.17;1.10;;;7.10;99.90;;;;;;4988927;28;20456;-67
2023/01/17 11:08:09;;;;;;;1.50;1.30;;;7.40;99.90;;;;;;4987987;28;20542;-67
2023/01/17 11:10:40;;;;;;;1.30;1.00;;;7.40;99.90;;;;;;4988866;28;20477;-67
2023/01/17 11:13:20;;;;;;;1.50;1.23;;;7.70;99.90;;;;;;4988548;28;20932;-67
2023/01/17 11:15:50;;;;;;;2.80;1.40;;;7.80;99.90;;;;;;4988463;28;20455;-67
2023/01/17 11:18:19;;;;;;;1.23;1.10;;;7.80;99.90;;;;;;4988541;28;20821;-68
2023/01/17 11:20:46;;;;;;;4.23;1.77;;;8.30;99.90;;;;;;4988190;28;20479;-65
2023/01/17 11:23:16;;;;;;;2.70;1.20;;;8.50;99.90;;;;;;4988367;28;20451;-68
2023/01/17 11:25:53;;;;;;;2.13;1.33;;;8.50;99.90;;;;;;4988094;28;20455;-68
2023/01/17 11:28:29;;;;;;;4.07;1.60;;;8.70;99.90;;;;;;4988383;28;20462;-68
2023/01/17 11:30:57;;;;;;;1.83;1.33;;;8.70;99.90;;;;;;4988209;28;20471;-67
2023/01/17 11:33:44;;;;;;;2.97;1.57;;;8.70;99.90;;;;;;4988345;28;20455;-68
2023/01/17 11:36:18;;;;;;;2.10;1.30;;;8.40;99.90;;;;;;4987462;28;20478;-67
2023/01/17 11:38:56;;;;;;;3.77;1.30;;;8.40;99.90;;;;;;4988472;28;20477;-67
2023/01/17 11:41:26;;;;;;;2.50;1.40;;;8.70;99.90;;;;;;4988085;28;20493;-67
2023/01/17 11:43:54;;;;;;;1.77;1.63;;;9.20;99.90;;;;;;4987901;28;21096;-68
2023/01/17 11:46:22;;;;;;;3.00;1.33;;;9.50;99.90;;;;;;4987470;28;20455;-68
2023/01/17 11:48:51;;;;;;;1.60;1.30;;;9.50;99.90;;;;;;4988172;28;20491;-68
2023/01/17 11:51:24;;;;;;;1.70;1.40;;;9.60;99.90;;;;;;4988210;28;20480;-67
2023/01/17 11:53:53;;;;;;;1.80;1.27;;;10.00;99.90;;;;;;4987742;28;20456;-67
2023/01/17 11:56:28;;;;;;;4.00;1.30;;;10.00;99.90;;;;;;4987400;28;20455;-68
2023/01/17 11:59:21;;;;;;;2.63;1.10;;;10.10;99.90;;;;;;4987723;28;20443;-68
2023/01/17 12:02:00;;;;;;;3.80;1.23;;;10.00;99.90;;;;;;4987739;28;20491;-68
2023/01/17 12:04:33;;;;;;;2.07;1.33;;;10.00;99.90;;;;;;4987014;28;20573;-68
2023/01/17 12:07:14;;;;;;;3.67;1.30;;;9.90;99.90;;;;;;4986759;28;20458;-68
2023/01/17 12:09:50;;;;;;;1.67;1.30;;;10.10;99.90;;;;;;4987689;28;20431;-68
2023/01/17 12:15:26;;;;;;;2.57;1.30;;;10.10;99.90;;;;;;4987391;28;20443;-68
2023/01/17 12:18:17;;;;;;;3.43;1.20;;;10.50;99.90;;;;;;4986951;28;20439;-68
2023/01/17 12:20:53;;;;;;;1.23;0.90;;;10.70;99.90;;;;;;4986887;28;20855;-68
2023/01/17 12:23:43;;;;;;;2.20;1.20;;;11.10;99.90;;;;;;4987135;28;20454;-68
2023/01/17 12:26:26;;;;;;;1.90;1.00;;;11.20;99.90;;;;;;4986583;28;20459;-68
2023/01/17 12:29:18;;;;;;;2.83;1.00;;;11.10;99.90;;;;;;4987172;28;20463;-68
2023/01/17 12:31:55;;;;;;;3.00;1.10;;;11.20;99.90;;;;;;4977145;28;20584;-68
2023/01/17 12:34:28;;;;;;;1.60;1.50;;;11.10;99.90;;;;;;4987548;28;20436;-68
2023/01/17 12:37:00;;;;;;;1.10;1.00;;;11.10;99.90;;;;;;4986807;28;20440;-68
2023/01/17 12:39:35;;;;;;;3.73;0.90;;;11.00;99.90;;;;;;4987289;28;20495;-68
2023/01/17 12:42:08;;;;;;;1.43;1.20;;;10.70;99.90;;;;;;4987108;28;20478;-68
2023/01/17 12:44:48;;;;;;;3.37;1.20;;;10.70;99.90;;;;;;4987027;28;20483;-67
2023/01/17 12:47:18;;;;;;;2.83;1.10;;;10.50;99.90;;;;;;4986311;28;20541;-67
2023/01/17 12:49:50;;;;;;;1.10;1.00;;;10.60;99.90;;;;;;4986990;28;20460;-67
2023/01/17 12:52:24;;;;;;;2.40;1.30;;;10.70;99.90;;;;;;4986785;28;20931;-67
2023/01/17 12:54:56;;;;;;;4.37;1.13;;;10.70;99.90;;;;;;4986856;28;20462;-67
2023/01/17 12:57:29;;;;;;;2.70;1.07;;;10.70;99.90;;;;;;4985751;28;20912;-67
2023/01/17 13:00:02;;;;;;;1.47;1.20;;;10.70;99.90;;;;;;4986816;28;20451;-67
2023/01/17 13:02:35;;;;;;;2.10;1.17;;;10.60;99.90;;;;;;4986668;28;20860;-67
2023/01/17 13:05:08;;;;;;;2.30;0.90;;;10.50;99.90;;;;;;4986584;28;20495;-67
2023/01/17 13:07:44;;;;;;;3.40;1.20;;;10.30;99.90;;;;;;4985434;28;20455;-68
2023/01/17 13:10:28;;;;;;;1.60;1.20;;;10.30;99.90;;;;;;4986496;28;20447;-67
2023/01/17 13:13:00;;;;;;;1.80;1.13;;;10.30;99.90;;;;;;4986361;28;20460;-67
2023/01/17 13:15:36;;;;;;;1.90;1.70;;;10.30;99.90;;;;;;4986555;28;20440;-67
2023/01/17 13:18:10;;;;;;;1.37;1.07;;;10.20;99.90;;;;;;4985896;28;20895;-67
2023/01/17 13:20:51;;;;;;;4.80;1.80;;;10.00;99.90;;;;;;4986214;28;21003;-67
2023/01/17 13:23:28;;;;;;;2.27;1.30;;;9.70;99.90;;;;;;4986347;28;20850;-67
2023/01/17 13:25:59;;;;;;;1.43;1.20;;;9.50;99.90;;;;;;4985707;28;20506;-67
2023/01/17 13:28:42;;;;;;;1.70;1.47;;;9.50;99.90;;;;;;4986361;28;20459;-67
2023/01/17 13:31:31;;;;;;;1.80;1.20;;;9.50;99.90;;;;;;4986428;28;20476;-67
2023/01/17 13:34:14;;;;;;;3.10;1.50;;;9.30;99.90;;;;;;4986015;28;20952;-67
2023/01/17 13:36:57;;;;;;;1.50;1.40;;;9.20;99.90;;;;;;4985389;28;20463;-70
2023/01/17 13:39:42;;;;;;;2.45;1.30;;;9.20;99.90;;;;;;4984852;28;20449;-67
2023/01/17 13:42:14;;;;;;;1.83;1.23;;;9.30;99.90;;;;;;4986108;28;20246;-67
2023/01/17 13:44:41;;;;;;;5.73;1.33;;;9.30;99.90;;;;;;4986446;28;20479;-67
2023/01/17 13:47:40;;;;;;;3.93;1.43;;;9.30;99.90;;;;;;4985655;28;21309;-67
2023/01/17 13:50:45;;;;;;;2.93;1.60;;;9.10;99.90;;;;;;4986339;28;20466;-67
2023/01/17 13:53:55;;;;;;;4.30;2.20;;;9.00;99.90;;;;;;4975690;28;20467;-67
2023/01/17 13:56:31;;;;;;;10.40;5.27;;;8.70;99.90;;;;;;4985491;28;20440;-67
2023/01/17 13:59:01;;;;;;;7.70;4.00;;;8.60;99.90;;;;;;4984702;28;20443;-67
2023/01/17 14:01:52;;;;;;;5.53;2.80;;;8.50;99.90;;;;;;4985020;28;20487;-67
2023/01/17 14:04:20;;;;;;;3.80;2.13;;;8.50;99.90;;;;;;4985116;28;20987;-67
2023/01/17 14:06:55;;;;;;;2.40;2.03;;;8.40;99.90;;;;;;4984406;28;20979;-67
2023/01/17 14:09:29;;;;;;;2.40;1.60;;;8.40;99.90;;;;;;4984759;28;20442;-67
2023/01/17 14:12:00;;;;;;;3.97;2.33;;;8.20;99.90;;;;;;4985219;28;20472;-67
2023/01/17 14:14:47;;;;;;;2.87;2.00;;;8.20;99.90;;;;;;4984754;28;20867;-67
2023/01/17 14:17:48;;;;;;;5.90;2.57;;;8.10;99.90;;;;;;4984346;28;20462;-67
2023/01/17 14:20:42;;;;;;;2.53;2.20;;;8.00;99.90;;;;;;4953262;28;20471;-67
2023/01/17 14:23:29;;;;;;;4.50;2.60;;;8.00;99.90;;;;;;4988756;28;20443;-67
2023/01/17 14:26:12;;;;;;;3.50;2.33;;;8.00;99.90;;;;;;4988117;28;20541;-67
2023/01/17 14:28:38;;;;;;;3.20;2.37;;;8.00;99.90;;;;;;4988855;28;20443;-67
2023/01/17 14:31:10;;;;;;;4.60;2.77;;;8.00;99.90;;;;;;4988460;28;20475;-67
2023/01/17 14:33:39;;;;;;;4.50;2.50;;;7.80;99.90;;;;;;4988087;28;20451;-68
2023/01/17 14:36:18;;;;;;;4.00;3.17;;;7.70;99.90;;;;;;4987533;28;20503;-67
2023/01/17 14:38:45;;;;;;;3.40;2.93;;;7.70;99.90;;;;;;4989236;28;20443;-67
2023/01/17 14:41:17;;;;;;;5.67;2.73;;;7.70;99.90;;;;;;4988985;28;20482;-69
2023/01/17 14:43:47;;;;;;;4.93;3.13;;;7.60;99.90;;;;;;4988931;28;21194;-67
2023/01/17 14:46:20;;;;;;;3.73;2.80;;;7.50;99.90;;;;;;4988023;28;20491;-67
2023/01/17 14:48:47;;;;;;;9.23;3.07;;;7.50;99.90;;;;;;4988501;28;20943;-67
2023/01/17 14:51:21;;;;;;;11.00;4.07;;;7.40;99.90;;;;;;4986286;28;20501;-67
2023/01/17 14:53:55;;;;;;;5.60;3.60;;;7.40;99.90;;;;;;4986509;28;20472;-67
2023/01/17 14:56:23;;;;;;;7.03;4.07;;;7.30;99.90;;;;;;4985703;28;20443;-67
2023/01/17 14:59:04;;;;;;;7.10;3.90;;;7.30;99.90;;;;;;4986523;28;20454;-67
2023/01/17 15:01:32;;;;;;;6.63;3.80;;;7.10;99.90;;;;;;4986009;28;20487;-67
2023/01/17 15:03:59;;;;;;;7.57;3.70;;;7.10;99.90;;;;;;4986365;28;20470;-67
2023/01/17 15:06:32;;;;;;;8.70;4.10;;;7.00;99.90;;;;;;4986747;28;20494;-66
2023/01/17 15:09:00;;;;;;;5.63;3.63;;;7.00;99.90;;;;;;4988114;28;20533;-67
2023/01/17 15:11:29;;;;;;;7.53;4.03;;;6.90;99.90;;;;;;4987973;28;20486;-67
2023/01/17 15:13:59;;;;;;;7.83;4.20;;;6.90;99.90;;;;;;4987633;28;20452;-67
2023/01/17 15:16:28;;;;;;;7.17;4.77;;;6.90;99.90;;;;;;4986769;28;20473;-67
2023/01/17 15:18:56;;;;;;;7.30;4.60;;;6.90;99.90;;;;;;4987610;28;20466;-67
2023/01/17 15:21:25;;;;;;;7.37;3.90;;;6.80;99.90;;;;;;4987480;28;20491;-67
2023/01/17 15:23:56;;;;;;;6.23;4.17;;;6.70;99.90;;;;;;4987273;28;20453;-67
2023/01/17 15:26:25;;;;;;;7.73;4.03;;;6.70;99.90;;;;;;4986680;28;20480;-67
2023/01/17 15:28:53;;;;;;;8.93;3.93;;;6.60;99.90;;;;;;4986641;28;20465;-67
2023/01/17 15:31:24;;;;;;;6.60;3.53;;;6.50;99.90;;;;;;4987642;28;20478;-67
2023/01/17 15:33:55;;;;;;;5.47;3.60;;;6.40;99.90;;;;;;4988202;28;20436;-67
2023/01/17 15:36:27;;;;;;;9.20;4.07;;;6.30;99.90;;;;;;4987273;28;20444;-67
2023/01/17 15:38:59;;;;;;;6.10;3.60;;;6.30;99.90;;;;;;4988010;28;20452;-67
2023/01/17 15:41:29;;;;;;;5.73;4.10;;;6.20;99.90;;;;;;4988088;28;20489;-67
2023/01/17 15:43:57;;;;;;;5.27;3.50;;;6.10;99.90;;;;;;4987885;28;20459;-67
2023/01/17 15:46:30;;;;;;;9.43;4.63;;;6.10;99.90;;;;;;4987577;28;20498;-67
2023/01/17 15:49:16;;;;;;;13.60;7.10;;;6.10;99.90;;;;;;4987746;28;21212;-67
2023/01/17 15:51:51;;;;;;;9.20;5.50;;;6.10;99.90;;;;;;4988217;28;20476;-67
2023/01/17 15:54:43;;;;;;;10.67;4.53;;;6.00;99.90;;;;;;4988100;28;20474;-67
2023/01/17 15:57:25;;;;;;;8.43;4.90;;;6.00;99.90;;;;;;4987681;28;20491;-67
2023/01/17 15:59:54;;;;;;;10.93;4.80;;;6.00;99.90;;;;;;4987629;28;20456;-67
2023/01/17 16:02:35;;;;;;;10.40;5.70;;;5.90;99.90;;;;;;4987413;28;20490;-67
2023/01/17 16:05:23;;;;;;;12.10;5.70;;;5.90;99.90;;;;;;4987874;28;20476;-67
2023/01/17 16:07:51;;;;;;;10.63;5.70;;;5.90;99.90;;;;;;4986742;28;20460;-67
2023/01/17 16:10:21;;;;;;;9.00;5.57;;;5.90;99.90;;;;;;4987256;28;21467;-67
2023/01/17 16:12:49;;;;;;;6.93;4.53;;;5.90;99.90;;;;;;4987886;28;20456;-67
2023/01/17 16:15:17;;;;;;;6.00;3.90;;;5.90;99.90;;;;;;4987559;28;20455;-67
2023/01/17 16:17:47;;;;;;;9.63;4.40;;;5.90;99.90;;;;;;4986876;28;20451;-67
2023/01/17 16:20:18;;;;;;;7.40;4.57;;;5.80;99.90;;;;;;4987550;28;20459;-67
2023/01/17 16:22:45;;;;;;;12.20;5.20;;;5.80;99.90;;;;;;4987032;28;20532;-67
2023/01/17 16:25:13;;;;;;;8.90;4.90;;;5.80;99.90;;;;;;4987177;28;20498;-67
2023/01/17 16:27:42;;;;;;;10.70;6.03;;;5.80;99.90;;;;;;4986868;28;20455;-72
2023/01/17 16:30:10;;;;;;;9.10;5.60;;;5.70;99.90;;;;;;4987377;28;20460;-71
2023/01/17 16:32:37;;;;;;;9.33;5.17;;;5.80;99.90;;;;;;4987243;28;20491;-71
2023/01/17 16:35:07;;;;;;;7.90;5.00;;;5.70;99.90;;;;;;4987123;28;20453;-73
2023/01/17 16:37:33;;;;;;;9.60;5.37;;;5.70;99.90;;;;;;4986397;28;20455;-73
2023/01/17 16:40:00;;;;;;;9.07;4.73;;;5.60;99.90;;;;;;4987253;28;20462;-72
2023/01/17 16:42:27;;;;;;;10.47;5.10;;;5.60;99.90;;;;;;4986597;28;20486;-72
2023/01/17 16:44:55;;;;;;;8.33;5.17;;;5.60;99.90;;;;;;4986733;28;20459;-71
2023/01/17 16:47:22;;;;;;;13.13;5.83;;;5.50;99.90;;;;;;4986398;28;20562;-74
2023/01/17 16:49:49;;;;;;;8.37;5.20;;;5.50;99.90;;;;;;4986848;28;20460;-72
2023/01/17 16:52:16;;;;;;;10.73;5.60;;;5.50;99.90;;;;;;4986709;28;20490;-72
2023/01/17 16:54:42;;;;;;;12.07;6.07;;;5.50;99.90;;;;;;4986758;28;20455;-71
2023/01/17 16:57:09;;;;;;;10.37;6.23;;;5.60;99.90;;;;;;4986187;28;20466;-72
2023/01/17 16:59:36;;;;;;;11.90;7.27;;;5.50;99.90;;;;;;4986851;28;20459;-71
2023/01/17 17:02:04;;;;;;;15.47;8.77;;;5.50;99.90;;;;;;4986489;28;20492;-72
2023/01/17 17:04:31;;;;;;;12.93;7.30;;;5.50;99.90;;;;;;4986406;28;21011;-73
2023/01/17 17:06:58;;;;;;;15.37;8.27;;;5.50;99.90;;;;;;4986115;28;20495;-72
2023/01/17 17:09:24;;;;;;;19.17;9.20;;;5.40;99.90;;;;;;4986899;28;20454;-72
2023/01/17 17:11:51;;;;;;;18.17;9.30;;;5.50;99.90;;;;;;4986282;28;21327;-72
2023/01/17 17:14:18;;;;;;;17.17;9.40;;;5.40;99.90;;;;;;4985571;28;20478;-71
2023/01/17 17:16:46;;;;;;;16.70;9.23;;;5.50;99.90;;;;;;4985216;28;20447;-72
2023/01/17 17:19:14;;;;;;;11.17;7.37;;;5.50;99.90;;;;;;4985658;28;20574;-73
2023/01/17 17:21:41;;;;;;;14.60;8.27;;;5.50;99.90;;;;;;4985790;28;20490;-72
2023/01/17 17:24:11;;;;;;;12.77;7.20;;;5.50;99.90;;;;;;4985626;28;20462;-74
2023/01/17 17:26:38;;;;;;;11.50;7.00;;;5.50;99.90;;;;;;4984898;28;20483;-72
2023/01/17 17:29:09;;;;;;;13.10;7.07;;;5.50;99.90;;;;;;4985621;28;20483;-71
2023/01/17 17:31:36;;;;;;;16.47;7.33;;;5.50;99.90;;;;;;4985453;28;20956;-71
2023/01/17 17:34:06;;;;;;;14.63;8.20;;;5.50;99.90;;;;;;4985745;28;20454;-71
2023/01/17 17:36:35;;;;;;;44.77;21.00;;;5.50;99.90;;;;;;4984942;28;20459;-71
2023/01/17 17:39:03;;;;;;;26.67;13.67;;;5.50;99.90;;;;;;4985083;28;20530;-71
2023/01/17 17:41:31;;;;;;;30.50;17.83;;;5.50;99.90;;;;;;4985256;28;20484;-71
2023/01/17 17:44:00;;;;;;;18.63;10.73;;;5.40;99.90;;;;;;4985188;28;20502;-71
2023/01/17 17:46:28;;;;;;;15.10;8.53;;;5.40;99.90;;;;;;4984508;28;20522;-72
2023/01/17 17:48:55;;;;;;;19.10;9.07;;;5.40;99.90;;;;;;4985382;28;20535;-73
2023/01/17 17:51:24;;;;;;;18.33;10.60;;;5.40;99.90;;;;;;4984807;28;20475;-72
2023/01/17 17:53:53;;;;;;;23.20;10.03;;;5.40;99.90;;;;;;4985583;28;20462;-71
2023/01/17 17:56:20;;;;;;;7.97;4.60;;;5.40;99.90;;;;;;4988562;28;20457;-70
2023/01/17 17:58:47;;;;;;;6.50;3.80;;;5.20;99.90;;;;;;4989326;28;20452;-71
2023/01/17 18:01:14;;;;;;;7.13;4.30;;;5.10;99.90;;;;;;4989065;28;20521;-75
2023/01/17 18:03:41;;;;;;;11.30;3.93;;;4.90;99.90;;;;;;4989396;28;20454;-71
2023/01/17 18:06:10;;;;;;;7.03;3.57;;;4.80;99.90;;;;;;4987993;28;20877;-71
2023/01/17 18:08:38;;;;;;;6.67;3.33;;;4.60;99.90;;;;;;4988797;28;20470;-71
2023/01/17 18:11:10;;;;;;;10.33;4.00;;;4.60;99.90;;;;;;4988445;28;20593;-71
2023/01/17 18:13:37;;;;;;;6.67;2.83;;;4.50;99.90;;;;;;4989274;28;20466;-71
2023/01/17 18:16:06;;;;;;;5.23;3.00;;;4.50;99.90;;;;;;4988563;28;20455;-71
2023/01/17 18:18:34;;;;;;;9.03;3.27;;;4.40;99.90;;;;;;4988850;28;20522;-72
2023/01/17 18:21:11;;;;;;;9.10;3.53;;;4.40;99.90;;;;;;4988716;28;20474;-73